Watertown, SD

7:26 PM CDT on July 23, 2014 (GMT -0500)
derby downs (KSDWATER2) Elev 1810 ft | 44.91 °N, 97.16 °W | Change Station

Current weather conditions updated 4 minutes ago

Clear
Clear
75.5 °F
Feels Like 78 °F
N
2.0
Wind Variable Wind from NE

Tomorrow is forecast to be nearly the same temperature as today.

Today
High -- | Low -- °F
--% Chance of Precip.
Yesterday
High -- | Low -- °F
Precip. -- in
6:04 AM 9:05 PM
Waning Crescent, 8% visible
Pressure 30.19 in
Visibility 10.0 miles
Clouds Clear
Heat Index 78 °F
Dew Point 57 °F
Humidity 52%
Rainfall 0.00 in
Snow Depth Not available.
UV 2 out of 12
Pollen 5.60 out of 12
Air Quality Not available.
Flu Activity Not available.
METAR KATY 232353Z AUTO 09006KT 10SM CLR 25/12 A3020 RMK AO2 SLP221 T02500122 10267 20244 58017

More Conditions Fewer Conditions

Pressure 30.19 in
Visibility 10.0 miles
Clouds Clear
Heat Index 78 °F
Dew Point 57 °F
Humidity 52%
Rainfall 0.00 in
Snow Depth Not available.
UV 2 out of 12
Pollen 5.60 out of 12
Air Quality Not available.
Flu Activity Not available.
METAR KATY 232353Z AUTO 09006KT 10SM CLR 25/12 A3020 RMK AO2 SLP221 T02500122 10267 20244 58017

More Conditions Fewer Conditions

10-Day Weather Forecast

Almanac

Astronomy

Jul. 23, 2014 Rise Set
Actual Time 6:04 AM CDT 9:05 PM CDT
Civil Twilight 5:29 AM CDT 9:39 PM CDT
Nautical Twilight 4:44 AM CDT 10:24 PM CDT
Astronomical Twilight 3:51 AM CDT 11:17 PM CDT
Moon 3:25 AM CDT (7/23) 6:33 PM CDT (7/23)
Length of Visible Light 16h 10m
Length of Day
15h 00m
Tomorrow will be 2m 4s shorter.
Waning Crescent, 8% of the Moon is Illuminated
Today
Waning Crescent
Jul 26
New
Aug 3
First Quarter
Aug 10
Full
Aug 17
Last Quarter

Today's Extremes

State Highs State Lows

Community

WunderPhotos

Upload Photos

1,736,827 photos uploaded!

Nearby

Snow Depth

Station Depth Elevation
Blind Park 0 in 6890 ft

Earthquake Activity

City Distance Mag. Time & Date
No recent earthquake activity has been reported nearby.
Minimum magnitude displayed is 2.5.

Coastal Water Temperatures

Place Temperature
No Stations Reporting

Nearby Weather Stations

Station Location Temp. Heat Index Dew Point Humidity Wind Precip. Elev Updated Type
derby downs, Watertown, SD 75.5 °F 78 °F 57 °F 52% NE  at  2.0 mph - / hr 1810 ft 7:22 PM CDT Normal
South Lake Pelican, Watertown, SD 76.1 °F 78 °F 57 °F 52% East  at  0.0 mph 0.00 in / hr 1726 ft 7:26 PM CDT Rapid Fire
East side of Watertown, SD, Watertown, SD 77.0 °F 79 °F 58 °F 53% East  at  8.9 mph - / hr 1732 ft 7:19 PM CDT Normal
Turkey Ridge, Watertown, SD 75.7 °F 78 °F 57 °F 53% East  at  7.0 mph 0.00 in / hr 1795 ft 7:19 PM CDT Normal
Kent, Florence, SD 76.2 °F 78 °F 59 °F 55% ENE  at  0.0 mph 0.00 in / hr 1801 ft 7:25 PM CDT Normal
Bradley, SD 75.9 °F 78 °F 53 °F 45% East  at  6.9 mph 0.00 in / hr 1827 ft 9:15 PM UYT Normal
Rural Summit, Summit, SD 74.1 °F 77 °F 58 °F 58% East  at  0.0 mph - / hr 1913 ft 7:26 PM CDT Normal

Show More Stations Show Fewer Stations